Time;durP1;ratioP1;P1;durP2;ratioP2;P2;SDS_P1;SDS_P2;PMS_P1;PMS_P2;Temp;Humidity;BMP_temperature;BMP_pressure;BME280_temperature;BME280_humidity;BME280_pressure;Samples;Min_cycle;Max_cycle;Signal;HPM_P1;HPM_P2
2023/10/16 00:01:15;;;;;;;2.90;1.10;;;5.10;99.90;;;;;;4970305;28;20111;-74
2023/10/16 00:03:42;;;;;;;3.05;1.27;;;5.00;99.90;;;;;;4965206;28;20249;-75
2023/10/16 00:06:11;;;;;;;3.03;1.33;;;5.00;99.90;;;;;;4971232;28;20062;-73
2023/10/16 00:08:53;;;;;;;2.17;1.20;;;5.00;99.90;;;;;;4967835;28;20405;-73
2023/10/16 00:11:25;;;;;;;3.63;1.15;;;5.00;99.90;;;;;;4974803;28;20027;-72
2023/10/16 00:13:52;;;;;;;8.43;1.63;;;5.00;99.90;;;;;;4968153;28;20110;-72
2023/10/16 00:16:21;;;;;;;5.30;1.67;;;4.90;99.90;;;;;;4973061;28;20024;-73
2023/10/16 00:18:53;;;;;;;3.60;1.67;;;4.90;99.90;;;;;;4971993;28;20377;-73
2023/10/16 00:21:19;;;;;;;3.85;1.40;;;4.90;99.90;;;;;;4969614;28;20482;-73
2023/10/16 00:23:47;;;;;;;2.95;1.10;;;4.90;99.90;;;;;;4975097;28;20109;-73
2023/10/16 00:26:19;;;;;;;3.88;1.27;;;4.90;99.90;;;;;;4968997;28;20022;-74
2023/10/16 00:29:00;;;;;;;4.00;1.60;;;4.90;99.90;;;;;;4970462;28;20431;-72
2023/10/16 00:31:32;;;;;;;3.67;1.35;;;4.90;99.90;;;;;;4966861;28;20515;-73
2023/10/16 00:34:02;;;;;;;4.45;1.55;;;4.90;99.90;;;;;;4968778;28;20081;-72
2023/10/16 00:36:31;;;;;;;2.78;1.10;;;4.80;99.90;;;;;;4965626;28;20027;-72
2023/10/16 00:39:12;;;;;;;4.85;1.70;;;4.80;99.90;;;;;;4987815;28;20510;-73
2023/10/16 00:41:43;;;;;;;3.65;1.02;;;4.70;99.90;;;;;;4984777;28;20031;-73
2023/10/16 00:44:16;;;;;;;3.92;1.48;;;4.70;99.90;;;;;;4966950;28;20029;-73
2023/10/16 00:46:45;;;;;;;3.80;1.23;;;4.70;99.90;;;;;;4971250;28;20416;-73
2023/10/16 00:49:14;;;;;;;3.08;1.52;;;4.70;99.90;;;;;;4969843;28;20041;-73
2023/10/16 00:51:41;;;;;;;3.35;1.23;;;4.70;99.90;;;;;;4967784;28;20022;-73
2023/10/16 00:54:18;;;;;;;3.85;1.95;;;4.60;99.90;;;;;;4965653;28;20023;-73
2023/10/16 00:56:46;;;;;;;5.18;1.55;;;4.60;99.90;;;;;;4973858;28;20531;-73
2023/10/16 00:59:18;;;;;;;2.53;1.20;;;4.60;99.90;;;;;;4967795;28;20434;-74
2023/10/16 01:01:45;;;;;;;2.92;1.25;;;4.60;99.90;;;;;;4969183;28;20034;-74
2023/10/16 01:04:11;;;;;;;4.22;1.42;;;4.60;99.90;;;;;;4965122;28;20053;-74
2023/10/16 01:06:37;;;;;;;4.50;1.50;;;4.50;99.90;;;;;;4968859;28;20108;-73
2023/10/16 01:09:12;;;;;;;3.72;1.33;;;4.50;99.90;;;;;;4966824;28;20027;-74
2023/10/16 01:11:41;;;;;;;3.70;1.52;;;4.50;99.90;;;;;;4967785;28;20127;-75
2023/10/16 01:14:12;;;;;;;4.15;1.58;;;4.50;99.90;;;;;;4968796;28;20113;-74
2023/10/16 01:16:38;;;;;;;2.58;1.00;;;4.50;99.90;;;;;;4967372;28;20034;-74
2023/10/16 01:19:06;;;;;;;6.22;1.70;;;4.50;99.90;;;;;;4974535;28;20504;-72
2023/10/16 01:21:32;;;;;;;2.55;1.50;;;4.50;99.90;;;;;;4965473;28;20031;-73
2023/10/16 01:24:03;;;;;;;2.53;1.55;;;4.50;99.90;;;;;;4965205;28;20038;-73
2023/10/16 01:26:32;;;;;;;4.55;1.63;;;4.50;99.90;;;;;;4967777;28;20066;-74
2023/10/16 01:28:57;;;;;;;3.53;1.80;;;4.50;99.90;;;;;;4967699;28;20031;-74
2023/10/16 01:31:30;;;;;;;5.05;1.60;;;4.40;99.90;;;;;;4970398;28;20512;-74
2023/10/16 01:33:55;;;;;;;1.98;0.95;;;4.40;99.90;;;;;;4972621;28;20026;-74
2023/10/16 01:36:23;;;;;;;3.67;1.50;;;4.40;99.90;;;;;;4978287;28;20023;-74
2023/10/16 01:38:49;;;;;;;4.20;1.30;;;4.40;99.90;;;;;;4969011;28;20023;-74
2023/10/16 01:41:15;;;;;;;4.13;1.70;;;4.40;99.90;;;;;;4974706;28;20500;-74
2023/10/16 01:43:44;;;;;;;3.33;1.70;;;4.30;99.90;;;;;;4971576;28;20062;-74
2023/10/16 01:46:13;;;;;;;3.38;1.55;;;4.30;99.90;;;;;;4971585;28;20051;-74
2023/10/16 01:48:46;;;;;;;3.35;1.55;;;4.30;99.90;;;;;;4967308;28;20023;-73
2023/10/16 01:51:18;;;;;;;5.90;1.70;;;4.30;99.90;;;;;;4966352;28;20098;-74
2023/10/16 01:53:44;;;;;;;1.30;1.00;;;4.30;99.90;;;;;;4971531;28;20055;-73
2023/10/16 01:56:13;;;;;;;4.20;1.30;;;4.20;99.90;;;;;;4974215;28;20104;-73
2023/10/16 01:58:44;;;;;;;3.90;1.15;;;4.20;99.90;;;;;;4968094;28;20097;-74
2023/10/16 02:01:10;;;;;;;4.15;1.23;;;4.20;99.90;;;;;;4971540;28;20034;-74
2023/10/16 02:03:36;;;;;;;4.28;1.48;;;4.20;99.90;;;;;;4969778;28;20074;-72
2023/10/16 02:06:03;;;;;;;6.57;1.90;;;4.10;99.90;;;;;;4970411;28;20130;-73
2023/10/16 02:08:31;;;;;;;3.28;1.65;;;4.10;99.90;;;;;;4969004;28;20113;-74
2023/10/16 02:11:02;;;;;;;3.72;1.33;;;4.10;99.90;;;;;;4972703;28;20105;-74
2023/10/16 02:13:36;;;;;;;3.22;1.42;;;4.10;99.90;;;;;;4966398;28;20687;-74
2023/10/16 02:16:12;;;;;;;3.92;1.70;;;4.10;99.90;;;;;;4970474;28;20917;-74
2023/10/16 02:18:41;;;;;;;3.75;2.08;;;4.10;99.90;;;;;;4970177;28;20038;-73
2023/10/16 02:21:11;;;;;;;6.25;2.10;;;4.10;99.90;;;;;;4973788;28;20053;-73
2023/10/16 02:23:44;;;;;;;4.15;1.85;;;4.00;99.90;;;;;;4989462;28;20023;-74
2023/10/16 02:26:11;;;;;;;3.47;1.77;;;4.00;99.90;;;;;;4971973;28;20026;-74
2023/10/16 02:28:40;;;;;;;3.85;1.85;;;4.00;99.90;;;;;;4978829;28;20038;-73
2023/10/16 02:31:13;;;;;;;3.75;2.33;;;3.90;99.90;;;;;;4971126;28;20061;-75
2023/10/16 02:33:46;;;;;;;4.20;1.90;;;3.90;99.90;;;;;;4966717;28;20019;-75
2023/10/16 02:36:15;;;;;;;4.47;1.90;;;3.90;99.90;;;;;;4973604;28;20030;-75
2023/10/16 02:38:42;;;;;;;5.55;2.00;;;3.90;99.90;;;;;;4970322;28;20507;-73
2023/10/16 02:41:09;;;;;;;4.95;1.85;;;3.80;99.90;;;;;;4974887;28;20027;-73
2023/10/16 02:43:41;;;;;;;3.53;1.75;;;3.80;99.90;;;;;;4969711;28;20019;-73
2023/10/16 02:46:11;;;;;;;8.10;2.10;;;3.70;99.90;;;;;;4971345;28;20085;-73
2023/10/16 02:48:43;;;;;;;3.85;2.05;;;3.70;99.90;;;;;;4968920;28;20032;-75
2023/10/16 02:51:14;;;;;;;3.38;1.85;;;3.70;99.90;;;;;;4984811;28;20106;-76
2023/10/16 02:53:41;;;;;;;4.63;2.13;;;3.70;99.90;;;;;;4966118;28;20019;-76
2023/10/16 02:56:14;;;;;;;6.35;2.67;;;3.60;99.90;;;;;;4970525;28;20022;-76
2023/10/16 02:58:55;;;;;;;5.30;2.05;;;3.60;99.90;;;;;;4976999;28;20038;-73
2023/10/16 03:01:21;;;;;;;6.40;2.03;;;3.60;99.90;;;;;;4970316;28;20026;-74
2023/10/16 03:03:47;;;;;;;5.82;1.50;;;3.60;99.90;;;;;;4969900;28;20460;-76
2023/10/16 03:06:13;;;;;;;3.13;1.58;;;3.50;99.90;;;;;;4972049;28;20031;-77
2023/10/16 03:08:39;;;;;;;3.70;1.60;;;3.50;99.90;;;;;;4968021;28;20023;-74
2023/10/16 03:11:13;;;;;;;4.07;1.73;;;3.50;99.90;;;;;;4969705;28;20509;-73
2023/10/16 03:13:40;;;;;;;4.35;1.60;;;3.50;99.90;;;;;;4967458;28;20059;-74
2023/10/16 03:16:15;;;;;;;2.35;1.48;;;3.50;99.90;;;;;;4968130;28;20038;-75
2023/10/16 03:18:43;;;;;;;3.53;1.25;;;3.50;99.90;;;;;;4966264;28;20031;-73
2023/10/16 03:23:43;;;;;;;3.00;1.13;;;3.50;99.90;;;;;;4970852;28;20031;-75
2023/10/16 03:26:16;;;;;;;2.28;1.33;;;3.50;99.90;;;;;;4964694;28;20073;-75
2023/10/16 03:28:44;;;;;;;4.95;1.52;;;3.50;99.90;;;;;;4968496;28;20022;-75
2023/10/16 03:31:11;;;;;;;3.88;1.50;;;3.50;99.90;;;;;;4971093;28;20027;-74
2023/10/16 03:33:38;;;;;;;3.22;1.60;;;3.50;99.90;;;;;;4972506;28;20020;-75
2023/10/16 03:36:04;;;;;;;2.92;1.27;;;3.50;99.90;;;;;;4971229;28;20019;-76
2023/10/16 03:38:36;;;;;;;2.88;1.30;;;3.50;99.90;;;;;;4969447;28;20034;-75
2023/10/16 03:41:04;;;;;;;3.35;1.33;;;3.50;99.90;;;;;;4970996;28;20029;-75
2023/10/16 03:43:30;;;;;;;5.70;1.67;;;3.50;99.90;;;;;;4966094;28;20039;-76
2023/10/16 03:45:55;;;;;;;3.67;1.45;;;3.40;99.90;;;;;;4972541;28;20019;-75
2023/10/16 03:48:21;;;;;;;2.80;1.50;;;3.40;99.90;;;;;;4966496;28;20057;-74
2023/10/16 03:50:47;;;;;;;3.28;1.60;;;3.40;99.90;;;;;;4969832;28;20497;-74
2023/10/16 03:53:13;;;;;;;4.90;1.88;;;3.40;99.90;;;;;;4964417;28;20034;-74
2023/10/16 03:55:44;;;;;;;4.38;1.73;;;3.40;99.90;;;;;;4970067;28;20149;-74
2023/10/16 03:58:14;;;;;;;4.25;1.55;;;3.30;99.90;;;;;;4969048;28;20084;-74
2023/10/16 04:00:50;;;;;;;5.28;1.63;;;3.30;99.90;;;;;;4969853;28;20023;-75
2023/10/16 04:03:21;;;;;;;1.65;0.77;;;3.30;99.90;;;;;;4969225;28;20081;-75
2023/10/16 04:05:48;;;;;;;1.88;1.38;;;3.30;99.90;;;;;;4974464;28;20029;-75
2023/10/16 04:08:14;;;;;;;4.40;2.03;;;3.20;99.90;;;;;;4970392;28;20041;-75
2023/10/16 04:10:46;;;;;;;5.45;1.90;;;3.20;99.90;;;;;;4966220;28;20027;-74
2023/10/16 04:13:14;;;;;;;4.85;1.60;;;3.20;99.90;;;;;;4966645;28;20054;-74
2023/10/16 04:18:17;;;;;;;2.47;1.67;;;3.10;99.90;;;;;;4964693;28;20027;-76
2023/10/16 04:20:43;;;;;;;5.15;1.70;;;3.10;99.90;;;;;;4968214;28;20117;-74
2023/10/16 04:23:37;;;;;;;4.32;2.22;;;3.00;99.90;;;;;;4967261;28;20117;-73
2023/10/16 04:31:45;;;;;;;5.20;1.83;;;3.00;99.90;;;;;;4963518;28;20046;-75
2023/10/16 04:45:24;;;;;;;6.00;2.70;;;3.00;99.90;;;;;;4964777;28;20404;-74
2023/10/16 05:03:23;;;;;;;5.88;3.30;;;2.90;99.90;;;;;;4968829;28;20030;-75
2023/10/16 05:11:33;;;;;;;4.03;3.00;;;2.80;99.90;;;;;;4968553;28;20054;-76
2023/10/16 05:14:28;;;;;;;7.03;4.03;;;2.80;99.90;;;;;;4963654;28;20038;-76
2023/10/16 05:19:46;;;;;;;;;;;2.70;99.90;;;;;;4967043;28;20038;-71
2023/10/16 06:14:22;;;;;;;3.83;2.28;;;2.70;99.90;;;;;;4964716;28;20038;-74
2023/10/16 06:16:53;;;;;;;4.22;2.67;;;2.70;99.90;;;;;;4964377;28;20032;-75
2023/10/16 06:19:24;;;;;;;5.43;2.65;;;2.80;99.90;;;;;;4965193;28;20019;-75
2023/10/16 06:21:52;;;;;;;5.25;2.47;;;2.80;99.90;;;;;;4968174;28;20031;-74
2023/10/16 06:24:32;;;;;;;6.38;2.80;;;2.80;99.90;;;;;;4967161;28;20031;-74
2023/10/16 06:27:21;;;;;;;7.05;2.85;;;2.80;99.90;;;;;;4967469;28;20033;-74
2023/10/16 06:29:50;;;;;;;6.43;2.97;;;2.90;99.90;;;;;;4965693;28;20041;-75
2023/10/16 06:32:25;;;;;;;5.28;2.25;;;2.80;99.90;;;;;;4963806;28;20398;-74
2023/10/16 06:34:58;;;;;;;8.82;3.72;;;2.90;99.90;;;;;;4966925;28;20023;-75
2023/10/16 06:37:38;;;;;;;12.10;4.15;;;2.80;99.90;;;;;;4965622;28;20026;-75
2023/10/16 06:40:16;;;;;;;10.23;4.00;;;2.90;99.90;;;;;;4965656;28;20038;-75
2023/10/16 06:43:11;;;;;;;8.18;3.75;;;2.90;99.90;;;;;;4964189;28;20494;-75
2023/10/16 06:48:37;;;;;;;8.40;3.65;;;2.80;99.90;;;;;;4965307;28;20074;-75
2023/10/16 06:51:22;;;;;;;13.60;5.80;;;2.90;99.90;;;;;;4968156;28;20130;-75
2023/10/16 06:53:47;;;;;;;11.23;5.63;;;2.90;99.90;;;;;;4965438;28;20015;-75
2023/10/16 06:56:27;;;;;;;10.63;4.72;;;2.90;99.90;;;;;;4968893;28;20473;-75
2023/10/16 06:58:54;;;;;;;12.05;5.47;;;3.00;99.90;;;;;;4969175;28;20415;-75
2023/10/16 07:01:20;;;;;;;11.45;5.05;;;3.00;99.90;;;;;;4966635;28;20488;-75
2023/10/16 07:03:47;;;;;;;9.02;4.85;;;3.00;99.90;;;;;;4968948;28;20023;-75
2023/10/16 07:06:14;;;;;;;11.57;5.22;;;3.00;99.90;;;;;;4970366;28;20118;-75
2023/10/16 07:08:41;;;;;;;10.07;4.88;;;3.10;99.90;;;;;;4968859;28;20037;-75
2023/10/16 07:11:11;;;;;;;13.10;5.20;;;3.20;99.90;;;;;;4970300;28;20102;-75
2023/10/16 07:13:38;;;;;;;11.50;6.10;;;3.20;99.90;;;;;;4969709;28;20493;-75
2023/10/16 07:16:05;;;;;;;11.43;6.80;;;3.20;99.90;;;;;;4974255;28;20045;-75
2023/10/16 07:18:33;;;;;;;12.68;6.05;;;3.30;99.90;;;;;;4967387;28;20023;-75
2023/10/16 07:23:35;;;;;;;10.98;6.22;;;3.40;99.90;;;;;;4964621;28;20406;-75
2023/10/16 07:26:17;;;;;;;8.65;5.38;;;3.40;99.90;;;;;;4968595;28;20601;-75
2023/10/16 07:28:48;;;;;;;8.93;4.80;;;3.50;99.90;;;;;;4970771;28;20035;-75
2023/10/16 07:31:17;;;;;;;10.27;5.00;;;3.50;99.90;;;;;;4970025;28;20467;-75
2023/10/16 07:33:59;;;;;;;10.55;5.20;;;3.50;99.90;;;;;;4964758;28;20070;-75
2023/10/16 07:36:37;;;;;;;12.48;5.03;;;3.50;99.90;;;;;;4969505;28;20066;-75
2023/10/16 07:39:03;;;;;;;11.18;4.85;;;3.50;99.90;;;;;;4967150;28;20035;-75
2023/10/16 07:41:37;;;;;;;9.48;4.68;;;3.50;99.90;;;;;;4965438;28;20035;-75
2023/10/16 07:44:06;;;;;;;8.32;4.95;;;3.60;99.90;;;;;;4964069;28;20142;-75
2023/10/16 07:46:32;;;;;;;10.57;5.88;;;3.60;99.90;;;;;;4969676;28;20038;-75
2023/10/16 07:49:10;;;;;;;9.73;5.07;;;3.70;99.90;;;;;;4970510;28;20035;-75
2023/10/16 07:51:36;;;;;;;9.38;5.18;;;3.70;99.90;;;;;;4966130;28;20034;-75
2023/10/16 07:54:06;;;;;;;8.15;4.88;;;3.70;99.90;;;;;;4983479;28;20031;-75
2023/10/16 07:56:38;;;;;;;8.70;4.88;;;3.80;99.90;;;;;;4967921;28;20490;-75
2023/10/16 07:59:10;;;;;;;10.30;5.05;;;3.80;99.90;;;;;;4969914;28;20401;-74
2023/10/16 08:01:48;;;;;;;10.40;5.20;;;3.90;99.90;;;;;;4967543;28;20027;-75
2023/10/16 08:07:05;;;;;;;9.27;4.78;;;4.00;99.90;;;;;;4969411;28;20084;-75
2023/10/16 08:11:58;;;;;;;11.13;4.55;;;4.10;99.90;;;;;;4970561;28;20497;-75
2023/10/16 08:14:35;;;;;;;12.23;5.85;;;4.20;99.90;;;;;;4964942;28;20030;-75
2023/10/16 08:17:04;;;;;;;13.88;5.32;;;4.20;99.90;;;;;;4972818;28;20114;-75
2023/10/16 08:19:36;;;;;;;8.63;4.82;;;4.20;99.90;;;;;;4969305;28;20039;-73
2023/10/16 08:22:07;;;;;;;13.38;4.78;;;4.20;99.90;;;;;;4966518;28;20041;-73
2023/10/16 08:24:43;;;;;;;10.38;5.10;;;4.10;99.90;;;;;;4984543;28;20157;-74
2023/10/16 08:27:22;;;;;;;7.70;5.05;;;4.10;99.90;;;;;;4969104;28;20042;-75
2023/10/16 08:29:54;;;;;;;11.65;5.88;;;4.20;99.90;;;;;;4969616;28;20023;-75
2023/10/16 08:35:09;;;;;;;12.10;5.63;;;4.30;99.90;;;;;;4961282;28;20033;-74
2023/10/16 08:37:34;;;;;;;10.38;6.03;;;4.40;99.90;;;;;;4965976;28;20030;-73
2023/10/16 08:40:00;;;;;;;12.63;5.85;;;4.50;99.90;;;;;;4968633;28;20031;-73
2023/10/16 08:42:26;;;;;;;12.63;6.18;;;4.60;99.90;;;;;;4966555;28;20027;-74
2023/10/16 08:44:52;;;;;;;7.30;4.90;;;4.60;99.90;;;;;;4970298;28;20380;-74
2023/10/16 08:47:24;;;;;;;7.03;4.53;;;4.70;99.90;;;;;;4964600;28;20026;-75
2023/10/16 08:49:54;;;;;;;6.22;4.63;;;4.70;99.90;;;;;;4966724;28;20486;-73
2023/10/16 08:52:23;;;;;;;6.65;4.57;;;4.80;99.90;;;;;;4969700;28;20027;-73
2023/10/16 08:57:16;;;;;;;7.15;4.07;;;5.00;99.90;;;;;;4970799;28;20085;-75
2023/10/16 09:00:11;;;;;;;5.97;4.15;;;4.90;99.90;;;;;;4967525;28;20035;-75
2023/10/16 09:02:39;;;;;;;10.18;5.55;;;5.00;99.90;;;;;;4967397;28;20039;-75
2023/10/16 09:05:08;;;;;;;8.80;4.97;;;5.10;99.90;;;;;;4967223;28;20035;-75
2023/10/16 09:07:36;;;;;;;6.55;4.70;;;5.20;99.90;;;;;;4960598;28;20038;-75
2023/10/16 09:10:09;;;;;;;7.38;4.45;;;5.30;99.90;;;;;;4967183;28;20117;-75
2023/10/16 09:12:44;;;;;;;8.35;4.57;;;5.40;99.90;;;;;;4963512;28;20037;-74
2023/10/16 09:15:13;;;;;;;11.60;5.28;;;5.40;99.90;;;;;;4961875;28;20030;-76
2023/10/16 09:17:39;;;;;;;9.70;5.45;;;5.60;99.90;;;;;;4966139;28;20029;-75
2023/10/16 09:20:14;;;;;;;13.15;5.25;;;5.70;99.90;;;;;;4966318;28;20090;-75
2023/10/16 09:22:47;;;;;;;9.23;5.03;;;5.80;99.90;;;;;;4963486;28;20027;-76
2023/10/16 09:25:16;;;;;;;9.52;4.63;;;5.80;99.90;;;;;;4962350;28;20038;-74
2023/10/16 09:27:44;;;;;;;7.47;4.32;;;5.90;99.90;;;;;;4965285;28;20077;-75
2023/10/16 09:30:20;;;;;;;6.93;4.05;;;6.00;99.90;;;;;;4964469;28;20498;-75
2023/10/16 09:32:57;;;;;;;8.23;4.43;;;6.10;99.90;;;;;;4966665;28;20043;-76
2023/10/16 09:35:43;;;;;;;10.00;4.93;;;6.20;99.90;;;;;;4963136;28;20038;-77
2023/10/16 09:38:19;;;;;;;11.63;5.28;;;6.20;99.90;;;;;;4966709;28;20086;-76
2023/10/16 09:44:05;;;;;;;11.32;4.68;;;6.30;99.90;;;;;;4966981;28;20027;-76
2023/10/16 09:49:23;;;;;;;8.07;4.32;;;6.50;99.90;;;;;;4936336;28;20418;-76
2023/10/16 09:51:59;;;;;;;6.63;4.47;;;6.60;99.90;;;;;;4963527;28;20102;-75
2023/10/16 09:54:31;;;;;;;11.98;4.72;;;6.60;99.90;;;;;;4965773;28;20027;-75
2023/10/16 09:57:00;;;;;;;10.98;4.72;;;6.70;99.90;;;;;;4965954;28;20022;-75
2023/10/16 09:59:38;;;;;;;8.18;4.53;;;6.80;99.90;;;;;;4968599;28;20374;-74
2023/10/16 10:02:05;;;;;;;8.13;3.85;;;6.90;99.90;;;;;;4966358;28;20515;-76
2023/10/16 10:04:35;;;;;;;9.02;4.25;;;6.90;99.90;;;;;;4968177;28;20062;-76
2023/10/16 10:07:13;;;;;;;8.23;4.82;;;7.00;99.90;;;;;;4967956;28;20039;-76
2023/10/16 10:09:46;;;;;;;4.97;3.40;;;7.10;99.90;;;;;;4969781;28;20038;-76
2023/10/16 10:12:47;;;;;;;8.23;4.55;;;7.20;99.90;;;;;;4960881;28;20499;-76
2023/10/16 10:15:35;;;;;;;7.63;4.50;;;7.30;99.90;;;;;;4967848;28;20031;-75
2023/10/16 10:18:32;;;;;;;8.50;4.60;;;7.30;99.90;;;;;;4964394;28;20039;-75
2023/10/16 10:20:58;;;;;;;8.25;4.22;;;7.40;99.90;;;;;;4967331;28;20038;-75
2023/10/16 10:23:36;;;;;;;7.00;3.90;;;7.40;99.90;;;;;;4962860;28;20037;-75
2023/10/16 10:26:07;;;;;;;5.28;3.60;;;7.50;99.90;;;;;;4978433;28;20042;-75
2023/10/16 10:28:37;;;;;;;7.57;4.30;;;7.60;99.90;;;;;;4966053;28;20065;-76
2023/10/16 10:31:05;;;;;;;6.55;4.15;;;7.70;99.90;;;;;;4964204;28;20486;-76
2023/10/16 10:33:58;;;;;;;6.07;3.53;;;7.80;99.90;;;;;;4981966;28;20313;-76
2023/10/16 10:36:39;;;;;;;5.72;4.03;;;7.80;99.90;;;;;;4964230;28;20019;-76
2023/10/16 10:39:20;;;;;;;5.85;3.22;;;7.90;99.90;;;;;;4968157;28;20031;-76
2023/10/16 10:41:54;;;;;;;10.40;4.05;;;8.00;99.90;;;;;;4966655;28;20393;-75
2023/10/16 10:44:29;;;;;;;7.20;3.85;;;8.00;99.90;;;;;;4970262;28;20031;-75
2023/10/16 10:47:02;;;;;;;4.68;2.80;;;8.10;99.90;;;;;;4967693;28;20062;-75
2023/10/16 10:49:35;;;;;;;6.93;3.00;;;8.20;99.90;;;;;;4966735;28;20050;-76
2023/10/16 10:52:06;;;;;;;5.72;2.97;;;8.30;99.90;;;;;;4969042;28;20185;-74
2023/10/16 10:54:33;;;;;;;4.38;3.00;;;8.40;99.90;;;;;;4970517;28;20025;-76
2023/10/16 10:57:07;;;;;;;4.13;2.55;;;8.40;99.90;;;;;;4963586;28;20027;-77
2023/10/16 10:59:40;;;;;;;5.93;2.67;;;8.50;99.90;;;;;;4964262;28;20097;-76
2023/10/16 11:02:09;;;;;;;5.35;2.95;;;8.60;99.90;;;;;;4965768;28;20046;-75
2023/10/16 11:04:35;;;;;;;7.78;2.95;;;8.70;99.90;;;;;;4964609;28;20026;-76
2023/10/16 11:07:11;;;;;;;4.57;2.95;;;8.70;99.90;;;;;;4968239;28;20446;-76
2023/10/16 11:09:38;;;;;;;7.72;3.00;;;8.80;99.90;;;;;;4968132;28;20078;-76
2023/10/16 11:12:07;;;;;;;7.85;3.47;;;8.80;99.90;;;;;;4968574;28;20086;-76
2023/10/16 11:14:37;;;;;;;6.15;2.92;;;8.90;99.90;;;;;;4968098;28;20026;-76
2023/10/16 11:17:06;;;;;;;6.25;3.20;;;8.90;99.90;;;;;;4969971;28;20031;-76
2023/10/16 11:19:49;;;;;;;4.97;2.90;;;9.00;99.90;;;;;;4967064;28;20469;-75
2023/10/16 11:22:27;;;;;;;6.97;3.03;;;9.00;99.90;;;;;;4965739;28;20023;-76
2023/10/16 11:24:53;;;;;;;3.95;2.90;;;9.10;99.90;;;;;;4971196;28;20555;-76
2023/10/16 11:27:19;;;;;;;4.82;2.60;;;9.10;99.90;;;;;;4974049;28;20027;-76
2023/10/16 11:29:52;;;;;;;6.15;3.20;;;9.20;99.90;;;;;;4969700;28;20767;-76
2023/10/16 11:32:25;;;;;;;5.28;3.65;;;9.20;99.90;;;;;;4966629;28;20031;-74
2023/10/16 11:34:59;;;;;;;4.68;3.00;;;9.40;99.90;;;;;;4969178;28;20477;-74
2023/10/16 11:37:25;;;;;;;8.60;3.25;;;9.40;99.90;;;;;;4969418;28;20417;-75
2023/10/16 11:39:56;;;;;;;6.60;4.00;;;9.50;99.90;;;;;;4968037;28;20061;-76
2023/10/16 11:42:24;;;;;;;6.88;2.95;;;9.60;99.90;;;;;;4974533;28;20037;-80
2023/10/16 11:44:51;;;;;;;4.85;3.20;;;9.60;99.90;;;;;;4973027;28;20493;-78
2023/10/16 11:47:18;;;;;;;6.07;2.88;;;9.70;99.90;;;;;;4975395;28;20034;-78
2023/10/16 11:49:53;;;;;;;4.68;3.13;;;9.70;99.90;;;;;;4977040;28;20074;-79
2023/10/16 11:52:20;;;;;;;7.43;3.35;;;9.80;99.90;;;;;;4974956;28;21318;-78
2023/10/16 11:54:58;;;;;;;7.15;2.97;;;9.80;99.90;;;;;;4972512;28;20034;-79
2023/10/16 11:57:27;;;;;;;4.63;2.47;;;9.90;99.90;;;;;;4971498;28;20564;-76
2023/10/16 11:59:53;;;;;;;4.25;2.22;;;9.90;99.90;;;;;;4973371;28;20482;-79
2023/10/16 12:02:20;;;;;;;4.93;2.30;;;9.90;99.90;;;;;;4975062;28;20054;-80
2023/10/16 12:04:46;;;;;;;5.07;2.40;;;10.00;99.90;;;;;;4973039;28;20128;-80
2023/10/16 12:07:13;;;;;;;4.55;2.00;;;10.10;99.90;;;;;;4976872;28;20050;-80
2023/10/16 12:09:47;;;;;;;3.97;1.73;;;10.20;99.50;;;;;;4973954;28;20034;-80
2023/10/16 12:12:19;;;;;;;5.90;2.08;;;10.30;98.80;;;;;;4972544;28;20043;-77
2023/10/16 12:14:47;;;;;;;4.78;1.98;;;10.40;98.60;;;;;;4974935;28;20625;-82
2023/10/16 12:17:15;;;;;;;4.18;1.83;;;10.50;98.20;;;;;;4971449;28;20077;-78
2023/10/16 12:19:41;;;;;;;2.45;1.65;;;10.50;98.30;;;;;;4972415;28;20165;-80
2023/10/16 12:22:10;;;;;;;3.25;1.60;;;10.50;98.10;;;;;;4976730;28;20486;-78
2023/10/16 12:24:35;;;;;;;3.47;1.25;;;10.60;97.40;;;;;;4971648;28;20031;-80
2023/10/16 12:27:01;;;;;;;3.55;1.13;;;10.70;96.60;;;;;;4972507;28;20033;-79
2023/10/16 12:29:27;;;;;;;6.13;0.90;;;10.70;96.20;;;;;;4972261;28;20027;-80
2023/10/16 12:31:55;;;;;;;4.90;1.40;;;10.80;95.50;;;;;;4972575;28;20077;-80
2023/10/16 12:34:22;;;;;;;2.08;0.77;;;10.80;94.90;;;;;;4970592;28;20081;-80
2023/10/16 12:36:49;;;;;;;1.92;0.90;;;10.90;93.80;;;;;;4976975;28;20061;-80
2023/10/16 12:39:28;;;;;;;1.88;0.70;;;11.00;92.70;;;;;;4989990;28;20034;-79
2023/10/16 12:42:01;;;;;;;1.17;0.52;;;11.00;92.20;;;;;;4972322;28;20030;-78
2023/10/16 12:44:27;;;;;;;1.67;1.00;;;11.10;91.10;;;;;;4973109;28;20038;-78
2023/10/16 12:46:53;;;;;;;2.55;0.73;;;11.20;90.90;;;;;;4972375;28;20421;-80
2023/10/16 12:49:20;;;;;;;1.80;0.70;;;11.30;89.80;;;;;;4972937;28;20042;-80
2023/10/16 12:51:46;;;;;;;1.42;0.60;;;11.30;89.30;;;;;;4972235;28;20087;-80
2023/10/16 12:54:12;;;;;;;1.45;0.63;;;11.30;89.10;;;;;;4971453;28;20050;-80
2023/10/16 12:56:43;;;;;;;1.67;0.50;;;11.40;89.70;;;;;;4975134;28;20702;-81
2023/10/16 12:59:11;;;;;;;1.40;0.50;;;11.40;87.60;;;;;;4971567;28;20031;-80
2023/10/16 13:01:41;;;;;;;1.45;0.70;;;11.40;86.50;;;;;;4972687;28;20483;-79
2023/10/16 13:04:13;;;;;;;2.47;0.75;;;11.50;86.60;;;;;;4971535;28;20057;-80
2023/10/16 13:06:39;;;;;;;4.13;1.00;;;11.50;86.80;;;;;;4973459;28;20031;-80
2023/10/16 13:09:05;;;;;;;2.53;1.00;;;11.40;86.30;;;;;;4975655;28;20037;-81
2023/10/16 13:11:32;;;;;;;1.65;0.95;;;11.50;84.30;;;;;;4972890;28;20038;-80
2023/10/16 13:13:58;;;;;;;2.33;0.90;;;11.50;83.70;;;;;;4970050;28;20023;-77
2023/10/16 13:16:24;;;;;;;1.73;0.65;;;11.50;84.20;;;;;;4973497;28;20034;-78
2023/10/16 13:18:57;;;;;;;1.52;0.80;;;11.50;84.60;;;;;;4987016;28;20035;-80
2023/10/16 13:21:32;;;;;;;3.00;0.55;;;11.50;84.20;;;;;;4972532;28;20027;-78
2023/10/16 13:24:14;;;;;;;3.05;1.08;;;11.50;84.50;;;;;;4975089;28;20075;-80
2023/10/16 13:26:40;;;;;;;3.25;0.70;;;11.60;83.20;;;;;;4973707;28;20034;-79
2023/10/16 13:29:10;;;;;;;0.80;0.60;;;11.60;83.40;;;;;;4973036;28;20073;-79
2023/10/16 13:31:37;;;;;;;0.73;0.50;;;11.60;83.20;;;;;;4973952;28;20034;-79
2023/10/16 13:34:04;;;;;;;1.95;0.73;;;11.60;84.80;;;;;;4970730;28;20108;-79
2023/10/16 13:36:35;;;;;;;2.95;0.70;;;11.60;83.60;;;;;;4967513;28;20026;-79
2023/10/16 13:39:09;;;;;;;1.15;0.57;;;11.50;82.00;;;;;;4968598;28;20031;-79
2023/10/16 13:41:50;;;;;;;1.33;0.70;;;11.50;82.00;;;;;;4974270;28;20388;-80
2023/10/16 13:44:23;;;;;;;2.60;0.70;;;11.50;82.00;;;;;;4970496;28;20019;-81
2023/10/16 13:46:50;;;;;;;3.25;1.05;;;11.60;82.20;;;;;;4970791;28;20024;-80
2023/10/16 13:49:17;;;;;;;2.67;1.00;;;11.60;82.10;;;;;;4972342;28;20048;-78
2023/10/16 13:51:44;;;;;;;2.95;0.95;;;11.50;82.20;;;;;;4971181;28;20035;-79
2023/10/16 13:54:12;;;;;;;2.78;0.80;;;11.50;82.00;;;;;;4975816;28;20485;-78
2023/10/16 13:56:45;;;;;;;2.65;0.85;;;11.50;82.90;;;;;;4971031;28;20797;-78
2023/10/16 13:59:11;;;;;;;2.63;0.90;;;11.60;81.90;;;;;;4968784;28;20086;-80
2023/10/16 14:01:43;;;;;;;0.82;0.50;;;11.60;81.80;;;;;;4970280;28;20039;-79
2023/10/16 14:04:16;;;;;;;1.95;0.80;;;11.60;81.70;;;;;;4978842;28;20859;-80
2023/10/16 14:06:52;;;;;;;2.13;0.98;;;11.50;81.00;;;;;;4969563;28;20022;-79
2023/10/16 14:09:32;;;;;;;2.00;0.73;;;11.50;80.40;;;;;;4976873;28;20046;-79
2023/10/16 14:11:59;;;;;;;2.35;0.60;;;11.50;80.70;;;;;;4979291;28;20038;-78
2023/10/16 14:14:28;;;;;;;1.30;0.80;;;11.50;80.30;;;;;;4975227;28;20029;-79
2023/10/16 14:17:03;;;;;;;3.13;0.90;;;11.50;80.30;;;;;;4973865;28;20019;-79
2023/10/16 14:19:29;;;;;;;2.63;0.75;;;11.50;80.40;;;;;;4989061;28;20312;-80
2023/10/16 14:21:57;;;;;;;2.50;0.60;;;11.50;80.90;;;;;;4975956;28;20062;-78
2023/10/16 14:24:24;;;;;;;1.23;0.57;;;11.50;80.40;;;;;;4973732;28;20034;-80
2023/10/16 14:26:57;;;;;;;4.18;0.82;;;11.50;79.00;;;;;;4975079;28;20508;-81
2023/10/16 14:29:24;;;;;;;0.98;0.70;;;11.50;78.50;;;;;;4986634;28;20031;-78
2023/10/16 14:31:51;;;;;;;2.13;0.77;;;11.50;78.50;;;;;;4972409;28;20034;-77
2023/10/16 14:34:22;;;;;;;1.52;1.00;;;11.50;78.30;;;;;;4973046;28;20049;-79
2023/10/16 14:36:49;;;;;;;1.63;0.80;;;11.50;77.80;;;;;;4973167;28;20434;-78
2023/10/16 14:39:16;;;;;;;1.13;0.60;;;11.50;78.10;;;;;;4975520;28;20033;-78
2023/10/16 14:41:41;;;;;;;1.85;0.95;;;11.50;78.10;;;;;;4974466;28;20038;-78
2023/10/16 14:44:11;;;;;;;1.05;0.60;;;11.50;78.10;;;;;;4969401;28;20030;-78
2023/10/16 14:46:38;;;;;;;2.25;0.85;;;11.50;77.30;;;;;;4974741;28;20375;-79
2023/10/16 14:49:08;;;;;;;0.90;0.60;;;11.40;77.00;;;;;;4971968;28;20038;-78
2023/10/16 14:51:40;;;;;;;2.15;1.02;;;11.40;76.70;;;;;;4971506;28;20030;-79
2023/10/16 14:54:10;;;;;;;1.65;0.77;;;11.40;76.90;;;;;;4972203;28;20391;-78
2023/10/16 14:56:37;;;;;;;1.23;0.80;;;11.40;77.50;;;;;;4971584;28;20018;-79
2023/10/16 14:59:25;;;;;;;1.30;0.73;;;11.30;78.20;;;;;;4987920;23;20078;-81
2023/10/16 15:01:50;;;;;;;1.40;0.65;;;11.30;76.60;;;;;;4994917;28;20216;-81
2023/10/16 15:04:17;;;;;;;2.20;0.57;;;11.30;76.60;;;;;;4979990;28;20053;-81
2023/10/16 15:06:50;;;;;;;2.28;0.88;;;11.30;75.70;;;;;;4982348;28;20033;-80
2023/10/16 15:09:16;;;;;;;1.27;0.60;;;11.30;76.10;;;;;;4990910;28;20034;-80
2023/10/16 15:11:46;;;;;;;1.38;0.75;;;11.30;75.50;;;;;;4999080;28;20026;-80